ESNQESPA

Guest
Details From ESNQ - Kiruna
To ESPA - Lulea Kallax
Flight Number -
Tags generated
Created
Modified
Stats Distance 155 nm / 287 km
Max Altitude 18,100 ft / 5,517 m
Waypoints 5
Social Downloads 1
Likes 0
Share VATSIM

Download

Looking for another format? Having issues loading an existing format? Contact us
Advertisement - Login to hide

Notes

Basic altitude profile: - Ascent Rate: 2500ft/min - Ascent Speed: 250kts - Cruise Altitude: 35000ft - Cruise Speed: 420kts - Descent Rate: 1500ft/min - Descent Speed: 250kts Options: - Use NATs: no - Use PACOTS: no - Use low airways: yes - Use high airways: no

Route

ESNQ KRA T317 RIXAN ESPA

ID Type Via Altitude Latitude Longitude Leg Dist Tot Dist Heading (true) Name
O ESNQ APT - 0 ft / 0 m 67.82198˚ 20.33676˚ - 0 nm - Kiruna
KRA VOR - 0 ft / 0 m 67.81922˚ 20.33750˚ 0 nm 0 nm 174° / 174° KIRUNA VOR-DME
VAGAS FIX T317 (AWY-LO) 10,200 ft / 3,109 m 67.34922˚ 20.15214˚ 28 nm 28 nm 189° / 188° -
RIXAN FIX T317 (AWY-LO) 18,100 ft / 5,517 m 66.74167˚ 19.94939˚ 36 nm 65 nm 188° / 187° -
O ESPA APT - 0 ft / 0 m 65.54376˚ 22.12198˚ 89 nm 154 nm 143° / 145° Lulea Kallax

Altitude Profile

Advertisement - Login to hide

ESNQ

Details ICAO ESNQ (KRN)
Name Kiruna
Region Sweden
Timezone Europe/Stockholm (UTC+1.0)
Stats Elevation 1,508 ft / 460 m (AMSL)
Location 67.821984° 20.336762°
Runways 1
Magnetic Variation 9.073° E

METAR

ESNQ 160650Z AUTO 22004KT 9999 NCD M11/M11 Q0994

Decode

TAF

Not found

Departure Runways

ID Width Length Bearing (true) Bearing (mag) Surface Threshold Offset Overrun Length
03 148 ft / 45 m 8,183 ft / 2,494 m 33.63° 24.56° Asphalt 0 ft / 0 m 200 ft / 61 m
21 148 ft / 45 m 8,183 ft / 2,494 m 213.66° 204.59° Asphalt 0 ft / 0 m 200 ft / 61 m

ESPA

Details ICAO ESPA (LLA)
Name Lulea Kallax
Region Sweden
Timezone Europe/Stockholm (UTC+1.0)
Stats Elevation 65 ft / 20 m (AMSL)
Location 65.543757° 22.121979°
Runways 1
Magnetic Variation 9.326° E

METAR

ESPA 160650Z 35003KT CAVOK M06/M06 Q1000

Decode

TAF

Not found

Destination Runways

ID Width Length Bearing (true) Bearing (mag) Surface Threshold Offset Overrun Length
14 148 ft / 45 m 10,957 ft / 3,340 m 137.32° 127.99° Asphalt 0 ft / 0 m 0 ft / 0 m
32 148 ft / 45 m 10,957 ft / 3,340 m 317.36° 308.03° Asphalt 0 ft / 0 m 0 ft / 0 m

Approach Navaids

Runway Type Ident Frequency Range Bearing (true) Bearing (mag) Slope Elevation
14 Localiser PA 110.30 MHz 18 nm / 33 km 137.38° 128.05° - 65 ft / 20 m (AMSL)
14 Glidescope PA 110.30 MHz 10 nm / 19 km 137.34° 128.01° 2.86° 65 ft / 20 m (AMSL)
32 Localiser SPA 109.90 MHz 18 nm / 33 km 317.33° 308.00° - 65 ft / 20 m (AMSL)
32 Glidescope SPA 109.90 MHz 10 nm / 19 km 317.34° 308.01° 2.86° 65 ft / 20 m (AMSL)
32 DME SPA 109.90 MHz 18 nm / 33 km - - - 45 ft / 14 m (AMSL)

Popular Alternatives